sensor_id;sensor_type;location;lat;lon;timestamp;P1;durP1;ratioP1;P2;durP2;ratioP2
20855;SDS011;10588;49.542;8.444;2022-08-06T00:01:51;0.45;;;0.45;;
20855;SDS011;10588;49.542;8.444;2022-08-06T00:04:17;0.98;;;0.50;;
20855;SDS011;10588;49.542;8.444;2022-08-06T00:06:44;0.75;;;0.50;;
20855;SDS011;10588;49.542;8.444;2022-08-06T00:09:15;1.25;;;0.60;;
20855;SDS011;10588;49.542;8.444;2022-08-06T00:11:41;1.00;;;0.43;;
20855;SDS011;10588;49.542;8.444;2022-08-06T00:14:11;0.45;;;0.40;;
20855;SDS011;10588;49.542;8.444;2022-08-06T00:16:37;0.73;;;0.50;;
20855;SDS011;10588;49.542;8.444;2022-08-06T00:19:02;0.82;;;0.60;;
20855;SDS011;10588;49.542;8.444;2022-08-06T00:21:28;0.47;;;0.40;;
20855;SDS011;10588;49.542;8.444;2022-08-06T00:23:54;0.68;;;0.50;;
20855;SDS011;10588;49.542;8.444;2022-08-06T00:26:19;0.63;;;0.40;;
20855;SDS011;10588;49.542;8.444;2022-08-06T00:28:45;0.73;;;0.40;;
20855;SDS011;10588;49.542;8.444;2022-08-06T00:31:11;1.23;;;0.70;;
20855;SDS011;10588;49.542;8.444;2022-08-06T00:33:40;1.08;;;0.60;;
20855;SDS011;10588;49.542;8.444;2022-08-06T00:36:06;0.60;;;0.50;;
20855;SDS011;10588;49.542;8.444;2022-08-06T00:38:34;0.47;;;0.47;;
20855;SDS011;10588;49.542;8.444;2022-08-06T00:41:03;0.52;;;0.38;;
20855;SDS011;10588;49.542;8.444;2022-08-06T00:43:29;1.40;;;0.50;;
20855;SDS011;10588;49.542;8.444;2022-08-06T00:45:54;0.90;;;0.57;;
20855;SDS011;10588;49.542;8.444;2022-08-06T00:48:20;1.40;;;0.70;;
20855;SDS011;10588;49.542;8.444;2022-08-06T00:50:46;0.93;;;0.60;;
20855;SDS011;10588;49.542;8.444;2022-08-06T00:53:12;0.80;;;0.40;;
20855;SDS011;10588;49.542;8.444;2022-08-06T00:55:37;0.93;;;0.50;;
20855;SDS011;10588;49.542;8.444;2022-08-06T00:58:03;0.77;;;0.60;;
20855;SDS011;10588;49.542;8.444;2022-08-06T01:00:29;1.50;;;0.60;;
20855;SDS011;10588;49.542;8.444;2022-08-06T01:02:56;3.42;;;0.60;;
20855;SDS011;10588;49.542;8.444;2022-08-06T01:05:21;1.48;;;0.73;;
20855;SDS011;10588;49.542;8.444;2022-08-06T01:07:47;1.42;;;0.50;;
20855;SDS011;10588;49.542;8.444;2022-08-06T01:10:12;1.13;;;0.50;;
20855;SDS011;10588;49.542;8.444;2022-08-06T01:12:38;1.83;;;0.50;;
20855;SDS011;10588;49.542;8.444;2022-08-06T01:15:04;0.90;;;0.57;;
20855;SDS011;10588;49.542;8.444;2022-08-06T01:17:34;0.85;;;0.68;;
20855;SDS011;10588;49.542;8.444;2022-08-06T01:20:17;0.77;;;0.55;;
20855;SDS011;10588;49.542;8.444;2022-08-06T01:28:54;0.93;;;0.65;;
20855;SDS011;10588;49.542;8.444;2022-08-06T01:31:44;0.82;;;0.55;;
20855;SDS011;10588;49.542;8.444;2022-08-06T01:34:15;1.35;;;0.50;;
20855;SDS011;10588;49.542;8.444;2022-08-06T01:36:47;0.77;;;0.63;;
20855;SDS011;10588;49.542;8.444;2022-08-06T01:39:17;1.05;;;0.60;;
20855;SDS011;10588;49.542;8.444;2022-08-06T01:41:46;0.63;;;0.50;;
20855;SDS011;10588;49.542;8.444;2022-08-06T01:44:17;0.70;;;0.60;;
20855;SDS011;10588;49.542;8.444;2022-08-06T01:46:52;0.40;;;0.40;;
20855;SDS011;10588;49.542;8.444;2022-08-06T01:49:23;1.05;;;0.60;;
20855;SDS011;10588;49.542;8.444;2022-08-06T01:51:52;1.48;;;0.50;;
20855;SDS011;10588;49.542;8.444;2022-08-06T01:54:20;0.47;;;0.47;;
20855;SDS011;10588;49.542;8.444;2022-08-06T01:56:49;0.98;;;0.60;;
20855;SDS011;10588;49.542;8.444;2022-08-06T01:59:18;1.23;;;0.68;;
20855;SDS011;10588;49.542;8.444;2022-08-06T02:01:47;0.77;;;0.60;;
20855;SDS011;10588;49.542;8.444;2022-08-06T02:04:16;0.65;;;0.60;;
20855;SDS011;10588;49.542;8.444;2022-08-06T02:06:45;1.50;;;0.60;;
20855;SDS011;10588;49.542;8.444;2022-08-06T02:09:14;1.92;;;0.60;;
20855;SDS011;10588;49.542;8.444;2022-08-06T02:11:43;0.98;;;0.60;;
20855;SDS011;10588;49.542;8.444;2022-08-06T02:14:20;1.20;;;0.57;;
20855;SDS011;10588;49.542;8.444;2022-08-06T02:16:49;1.00;;;0.63;;
20855;SDS011;10588;49.542;8.444;2022-08-06T02:19:16;0.50;;;0.40;;
20855;SDS011;10588;49.542;8.444;2022-08-06T02:21:45;0.90;;;0.60;;
20855;SDS011;10588;49.542;8.444;2022-08-06T02:24:12;2.92;;;0.50;;
20855;SDS011;10588;49.542;8.444;2022-08-06T02:26:39;1.63;;;0.57;;
20855;SDS011;10588;49.542;8.444;2022-08-06T02:29:06;0.77;;;0.60;;
20855;SDS011;10588;49.542;8.444;2022-08-06T02:31:34;0.82;;;0.55;;
20855;SDS011;10588;49.542;8.444;2022-08-06T02:34:00;2.50;;;0.60;;
20855;SDS011;10588;49.542;8.444;2022-08-06T02:38:58;1.20;;;0.50;;
20855;SDS011;10588;49.542;8.444;2022-08-06T02:41:30;0.75;;;0.60;;
20855;SDS011;10588;49.542;8.444;2022-08-06T02:44:17;0.50;;;0.50;;
20855;SDS011;10588;49.542;8.444;2022-08-06T02:47:09;0.47;;;0.43;;
20855;SDS011;10588;49.542;8.444;2022-08-06T02:49:46;0.60;;;0.57;;
20855;SDS011;10588;49.542;8.444;2022-08-06T02:52:18;1.02;;;0.52;;
20855;SDS011;10588;49.542;8.444;2022-08-06T02:54:53;0.55;;;0.50;;
20855;SDS011;10588;49.542;8.444;2022-08-06T02:57:23;0.80;;;0.60;;
20855;SDS011;10588;49.542;8.444;2022-08-06T02:59:53;0.77;;;0.60;;
20855;SDS011;10588;49.542;8.444;2022-08-06T03:02:24;1.95;;;0.70;;
20855;SDS011;10588;49.542;8.444;2022-08-06T03:04:51;0.75;;;0.52;;
20855;SDS011;10588;49.542;8.444;2022-08-06T03:07:19;1.33;;;0.60;;
20855;SDS011;10588;49.542;8.444;2022-08-06T03:09:48;1.08;;;0.55;;
20855;SDS011;10588;49.542;8.444;2022-08-06T03:12:15;0.57;;;0.57;;
20855;SDS011;10588;49.542;8.444;2022-08-06T03:14:42;0.60;;;0.50;;
20855;SDS011;10588;49.542;8.444;2022-08-06T03:17:10;1.52;;;0.55;;
20855;SDS011;10588;49.542;8.444;2022-08-06T03:19:37;1.27;;;0.50;;
20855;SDS011;10588;49.542;8.444;2022-08-06T03:22:04;0.77;;;0.52;;
20855;SDS011;10588;49.542;8.444;2022-08-06T03:24:31;1.88;;;0.50;;
20855;SDS011;10588;49.542;8.444;2022-08-06T03:26:59;0.82;;;0.52;;
20855;SDS011;10588;49.542;8.444;2022-08-06T03:29:26;1.65;;;0.70;;
20855;SDS011;10588;49.542;8.444;2022-08-06T03:31:52;2.15;;;0.50;;
20855;SDS011;10588;49.542;8.444;2022-08-06T03:34:19;0.68;;;0.52;;
20855;SDS011;10588;49.542;8.444;2022-08-06T03:36:45;0.77;;;0.55;;
20855;SDS011;10588;49.542;8.444;2022-08-06T03:39:11;0.50;;;0.50;;
20855;SDS011;10588;49.542;8.444;2022-08-06T03:41:38;0.70;;;0.50;;
20855;SDS011;10588;49.542;8.444;2022-08-06T03:44:05;0.60;;;0.50;;
20855;SDS011;10588;49.542;8.444;2022-08-06T03:46:40;0.68;;;0.50;;
20855;SDS011;10588;49.542;8.444;2022-08-06T03:49:27;1.33;;;0.50;;
20855;SDS011;10588;49.542;8.444;2022-08-06T03:51:58;3.88;;;0.50;;
20855;SDS011;10588;49.542;8.444;2022-08-06T03:54:27;0.47;;;0.47;;
20855;SDS011;10588;49.542;8.444;2022-08-06T03:56:57;0.65;;;0.40;;
20855;SDS011;10588;49.542;8.444;2022-08-06T03:59:39;1.08;;;0.40;;
20855;SDS011;10588;49.542;8.444;2022-08-06T04:02:07;0.77;;;0.40;;
20855;SDS011;10588;49.542;8.444;2022-08-06T04:04:33;0.63;;;0.50;;
20855;SDS011;10588;49.542;8.444;2022-08-06T04:07:00;1.42;;;0.57;;
20855;SDS011;10588;49.542;8.444;2022-08-06T04:09:27;0.50;;;0.50;;
20855;SDS011;10588;49.542;8.444;2022-08-06T04:11:56;1.40;;;0.60;;
20855;SDS011;10588;49.542;8.444;2022-08-06T04:14:22;0.50;;;0.50;;
20855;SDS011;10588;49.542;8.444;2022-08-06T04:16:48;0.45;;;0.45;;
20855;SDS011;10588;49.542;8.444;2022-08-06T04:19:15;1.20;;;0.50;;
20855;SDS011;10588;49.542;8.444;2022-08-06T04:21:44;1.75;;;0.50;;
20855;SDS011;10588;49.542;8.444;2022-08-06T04:24:12;0.90;;;0.40;;
20855;SDS011;10588;49.542;8.444;2022-08-06T04:26:39;0.55;;;0.45;;
20855;SDS011;10588;49.542;8.444;2022-08-06T04:29:08;0.30;;;0.30;;
20855;SDS011;10588;49.542;8.444;2022-08-06T04:31:40;1.02;;;0.47;;
20855;SDS011;10588;49.542;8.444;2022-08-06T04:34:09;0.70;;;0.52;;
20855;SDS011;10588;49.542;8.444;2022-08-06T04:36:38;0.73;;;0.47;;
20855;SDS011;10588;49.542;8.444;2022-08-06T04:39:04;1.55;;;0.50;;
20855;SDS011;10588;49.542;8.444;2022-08-06T04:41:30;0.57;;;0.50;;
20855;SDS011;10588;49.542;8.444;2022-08-06T04:43:56;2.67;;;0.50;;
20855;SDS011;10588;49.542;8.444;2022-08-06T04:46:22;0.40;;;0.40;;
20855;SDS011;10588;49.542;8.444;2022-08-06T04:48:48;1.00;;;0.45;;
20855;SDS011;10588;49.542;8.444;2022-08-06T04:51:14;0.38;;;0.30;;
20855;SDS011;10588;49.542;8.444;2022-08-06T04:53:40;0.43;;;0.40;;
20855;SDS011;10588;49.542;8.444;2022-08-06T04:56:07;0.68;;;0.40;;
20855;SDS011;10588;49.542;8.444;2022-08-06T04:58:34;1.45;;;0.50;;
20855;SDS011;10588;49.542;8.444;2022-08-06T05:01:00;0.68;;;0.40;;
20855;SDS011;10588;49.542;8.444;2022-08-06T05:03:27;0.93;;;0.38;;
20855;SDS011;10588;49.542;8.444;2022-08-06T05:08:43;0.55;;;0.40;;
20855;SDS011;10588;49.542;8.444;2022-08-06T05:13:46;1.00;;;0.60;;
20855;SDS011;10588;49.542;8.444;2022-08-06T05:16:19;0.75;;;0.40;;
20855;SDS011;10588;49.542;8.444;2022-08-06T05:18:49;0.43;;;0.40;;
20855;SDS011;10588;49.542;8.444;2022-08-06T05:21:20;1.45;;;0.47;;
20855;SDS011;10588;49.542;8.444;2022-08-06T05:23:49;0.45;;;0.32;;
20855;SDS011;10588;49.542;8.444;2022-08-06T05:26:18;0.93;;;0.40;;
20855;SDS011;10588;49.542;8.444;2022-08-06T05:28:44;1.15;;;0.40;;
20855;SDS011;10588;49.542;8.444;2022-08-06T05:31:09;0.38;;;0.38;;
20855;SDS011;10588;49.542;8.444;2022-08-06T05:33:36;0.73;;;0.60;;
20855;SDS011;10588;49.542;8.444;2022-08-06T05:36:04;1.60;;;0.50;;
20855;SDS011;10588;49.542;8.444;2022-08-06T05:38:35;0.75;;;0.50;;
20855;SDS011;10588;49.542;8.444;2022-08-06T05:41:06;2.08;;;0.43;;
20855;SDS011;10588;49.542;8.444;2022-08-06T05:43:36;0.68;;;0.57;;
20855;SDS011;10588;49.542;8.444;2022-08-06T05:46:09;0.52;;;0.40;;
20855;SDS011;10588;49.542;8.444;2022-08-06T05:48:38;0.50;;;0.50;;
20855;SDS011;10588;49.542;8.444;2022-08-06T05:51:12;0.70;;;0.40;;
20855;SDS011;10588;49.542;8.444;2022-08-06T05:53:44;2.15;;;0.50;;
20855;SDS011;10588;49.542;8.444;2022-08-06T05:56:20;0.52;;;0.40;;
20855;SDS011;10588;49.542;8.444;2022-08-06T05:59:02;0.50;;;0.50;;
20855;SDS011;10588;49.542;8.444;2022-08-06T06:01:30;2.20;;;0.50;;
20855;SDS011;10588;49.542;8.444;2022-08-06T06:03:59;0.77;;;0.40;;
20855;SDS011;10588;49.542;8.444;2022-08-06T06:06:26;1.58;;;0.52;;
20855;SDS011;10588;49.542;8.444;2022-08-06T06:08:52;1.60;;;0.40;;
20855;SDS011;10588;49.542;8.444;2022-08-06T06:11:18;1.08;;;0.50;;
20855;SDS011;10588;49.542;8.444;2022-08-06T06:13:44;0.60;;;0.50;;
20855;SDS011;10588;49.542;8.444;2022-08-06T06:19:02;1.50;;;0.60;;
20855;SDS011;10588;49.542;8.444;2022-08-06T06:21:57;0.40;;;0.30;;
20855;SDS011;10588;49.542;8.444;2022-08-06T06:25:02;1.95;;;0.50;;
20855;SDS011;10588;49.542;8.444;2022-08-06T06:27:52;1.80;;;0.45;;
20855;SDS011;10588;49.542;8.444;2022-08-06T06:30:25;0.63;;;0.50;;
20855;SDS011;10588;49.542;8.444;2022-08-06T06:33:23;0.45;;;0.40;;
20855;SDS011;10588;49.542;8.444;2022-08-06T06:35:56;0.68;;;0.50;;
20855;SDS011;10588;49.542;8.444;2022-08-06T06:38:31;0.60;;;0.40;;
20855;SDS011;10588;49.542;8.444;2022-08-06T06:43:37;0.90;;;0.50;;
20855;SDS011;10588;49.542;8.444;2022-08-06T06:48:47;1.25;;;0.50;;
20855;SDS011;10588;49.542;8.444;2022-08-06T06:51:19;0.65;;;0.43;;
20855;SDS011;10588;49.542;8.444;2022-08-06T06:53:48;1.25;;;0.60;;
20855;SDS011;10588;49.542;8.444;2022-08-06T06:56:17;0.75;;;0.43;;
20855;SDS011;10588;49.542;8.444;2022-08-06T06:58:48;0.73;;;0.52;;
20855;SDS011;10588;49.542;8.444;2022-08-06T07:01:17;0.38;;;0.38;;
20855;SDS011;10588;49.542;8.444;2022-08-06T07:03:44;0.68;;;0.30;;
20855;SDS011;10588;49.542;8.444;2022-08-06T07:06:11;2.45;;;0.43;;
20855;SDS011;10588;49.542;8.444;2022-08-06T07:08:43;1.23;;;0.40;;
20855;SDS011;10588;49.542;8.444;2022-08-06T07:11:21;1.48;;;0.47;;
20855;SDS011;10588;49.542;8.444;2022-08-06T07:13:49;0.52;;;0.40;;
20855;SDS011;10588;49.542;8.444;2022-08-06T07:16:20;1.30;;;0.50;;
20855;SDS011;10588;49.542;8.444;2022-08-06T07:18:47;2.33;;;0.35;;
20855;SDS011;10588;49.542;8.444;2022-08-06T07:21:17;1.35;;;0.50;;
20855;SDS011;10588;49.542;8.444;2022-08-06T07:23:45;2.45;;;0.60;;
20855;SDS011;10588;49.542;8.444;2022-08-06T07:26:13;0.90;;;0.40;;
20855;SDS011;10588;49.542;8.444;2022-08-06T07:28:42;0.60;;;0.50;;
20855;SDS011;10588;49.542;8.444;2022-08-06T07:31:08;0.75;;;0.50;;
20855;SDS011;10588;49.542;8.444;2022-08-06T07:33:37;1.50;;;0.50;;
20855;SDS011;10588;49.542;8.444;2022-08-06T07:36:05;0.60;;;0.40;;
20855;SDS011;10588;49.542;8.444;2022-08-06T07:38:31;0.35;;;0.30;;
20855;SDS011;10588;49.542;8.444;2022-08-06T07:40:59;1.83;;;0.60;;
20855;SDS011;10588;49.542;8.444;2022-08-06T07:43:30;0.73;;;0.50;;
20855;SDS011;10588;49.542;8.444;2022-08-06T07:45:59;0.30;;;0.30;;
20855;SDS011;10588;49.542;8.444;2022-08-06T07:48:28;0.88;;;0.60;;
20855;SDS011;10588;49.542;8.444;2022-08-06T07:50:57;10.82;;;1.23;;
20855;SDS011;10588;49.542;8.444;2022-08-06T07:53:24;14.70;;;1.95;;
20855;SDS011;10588;49.542;8.444;2022-08-06T07:55:51;5.18;;;0.60;;
20855;SDS011;10588;49.542;8.444;2022-08-06T07:58:17;5.18;;;0.57;;
20855;SDS011;10588;49.542;8.444;2022-08-06T08:00:44;11.07;;;0.80;;
20855;SDS011;10588;49.542;8.444;2022-08-06T08:03:12;4.65;;;0.60;;
20855;SDS011;10588;49.542;8.444;2022-08-06T08:05:57;5.28;;;0.80;;
20855;SDS011;10588;49.542;8.444;2022-08-06T08:08:41;6.13;;;0.50;;
20855;SDS011;10588;49.542;8.444;2022-08-06T08:11:07;0.98;;;0.50;;
20855;SDS011;10588;49.542;8.444;2022-08-06T08:13:34;2.13;;;0.70;;
20855;SDS011;10588;49.542;8.444;2022-08-06T08:16:01;2.15;;;0.40;;
20855;SDS011;10588;49.542;8.444;2022-08-06T08:18:29;0.40;;;0.25;;
20855;SDS011;10588;49.542;8.444;2022-08-06T08:20:55;2.80;;;0.40;;
20855;SDS011;10588;49.542;8.444;2022-08-06T08:23:22;1.02;;;0.30;;
20855;SDS011;10588;49.542;8.444;2022-08-06T08:25:49;5.55;;;0.60;;
20855;SDS011;10588;49.542;8.444;2022-08-06T08:28:14;8.93;;;0.57;;
20855;SDS011;10588;49.542;8.444;2022-08-06T08:30:40;2.47;;;0.38;;
20855;SDS011;10588;49.542;8.444;2022-08-06T08:33:07;4.85;;;0.70;;
20855;SDS011;10588;49.542;8.444;2022-08-06T08:35:32;4.18;;;0.50;;
20855;SDS011;10588;49.542;8.444;2022-08-06T08:37:58;5.97;;;0.50;;
20855;SDS011;10588;49.542;8.444;2022-08-06T08:40:24;2.35;;;0.80;;
20855;SDS011;10588;49.542;8.444;2022-08-06T08:42:51;3.92;;;0.88;;
20855;SDS011;10588;49.542;8.444;2022-08-06T08:45:20;2.67;;;0.63;;
20855;SDS011;10588;49.542;8.444;2022-08-06T08:47:50;0.68;;;0.38;;
20855;SDS011;10588;49.542;8.444;2022-08-06T08:50:21;1.42;;;0.40;;
20855;SDS011;10588;49.542;8.444;2022-08-06T08:52:49;1.35;;;0.35;;
20855;SDS011;10588;49.542;8.444;2022-08-06T08:55:17;3.40;;;0.30;;
20855;SDS011;10588;49.542;8.444;2022-08-06T08:57:47;1.77;;;0.30;;
20855;SDS011;10588;49.542;8.444;2022-08-06T09:00:16;0.60;;;0.30;;
20855;SDS011;10588;49.542;8.444;2022-08-06T09:02:42;0.85;;;0.32;;
20855;SDS011;10588;49.542;8.444;2022-08-06T09:05:09;2.83;;;0.43;;
20855;SDS011;10588;49.542;8.444;2022-08-06T09:07:35;0.47;;;0.32;;
20855;SDS011;10588;49.542;8.444;2022-08-06T09:10:03;1.40;;;0.22;;
20855;SDS011;10588;49.542;8.444;2022-08-06T09:12:30;0.93;;;0.50;;
20855;SDS011;10588;49.542;8.444;2022-08-06T09:14:56;0.30;;;0.30;;
20855;SDS011;10588;49.542;8.444;2022-08-06T09:17:21;1.00;;;0.22;;
20855;SDS011;10588;49.542;8.444;2022-08-06T09:19:48;2.00;;;0.30;;
20855;SDS011;10588;49.542;8.444;2022-08-06T09:22:14;0.60;;;0.40;;
20855;SDS011;10588;49.542;8.444;2022-08-06T09:24:40;16.40;;;1.38;;
20855;SDS011;10588;49.542;8.444;2022-08-06T09:29:35;2.85;;;0.50;;
20855;SDS011;10588;49.542;8.444;2022-08-06T09:32:02;0.88;;;0.28;;
20855;SDS011;10588;49.542;8.444;2022-08-06T09:34:35;5.93;;;0.40;;
20855;SDS011;10588;49.542;8.444;2022-08-06T09:37:02;2.78;;;0.35;;
20855;SDS011;10588;49.542;8.444;2022-08-06T09:42:07;3.75;;;0.40;;
20855;SDS011;10588;49.542;8.444;2022-08-06T09:44:33;3.40;;;0.57;;
20855;SDS011;10588;49.542;8.444;2022-08-06T09:46:59;2.15;;;0.50;;
20855;SDS011;10588;49.542;8.444;2022-08-06T09:49:26;3.30;;;0.70;;
20855;SDS011;10588;49.542;8.444;2022-08-06T09:54:37;1.27;;;0.30;;
20855;SDS011;10588;49.542;8.444;2022-08-06T09:57:03;2.95;;;0.40;;
20855;SDS011;10588;49.542;8.444;2022-08-06T09:59:28;5.93;;;0.47;;
20855;SDS011;10588;49.542;8.444;2022-08-06T10:02:11;2.80;;;0.30;;
20855;SDS011;10588;49.542;8.444;2022-08-06T10:04:40;2.30;;;0.28;;
20855;SDS011;10588;49.542;8.444;2022-08-06T10:07:06;0.95;;;0.30;;
20855;SDS011;10588;49.542;8.444;2022-08-06T10:09:32;0.90;;;0.30;;
20855;SDS011;10588;49.542;8.444;2022-08-06T10:11:58;3.10;;;0.50;;
20855;SDS011;10588;49.542;8.444;2022-08-06T10:14:28;1.70;;;0.30;;
20855;SDS011;10588;49.542;8.444;2022-08-06T10:17:02;0.32;;;0.28;;
20855;SDS011;10588;49.542;8.444;2022-08-06T10:19:37;2.28;;;0.30;;
20855;SDS011;10588;49.542;8.444;2022-08-06T10:22:08;0.85;;;0.38;;
20855;SDS011;10588;49.542;8.444;2022-08-06T10:24:40;0.55;;;0.20;;
20855;SDS011;10588;49.542;8.444;2022-08-06T10:27:09;1.75;;;0.30;;
20855;SDS011;10588;49.542;8.444;2022-08-06T10:29:38;0.20;;;0.20;;
20855;SDS011;10588;49.542;8.444;2022-08-06T10:32:12;1.45;;;0.30;;
20855;SDS011;10588;49.542;8.444;2022-08-06T10:34:41;1.75;;;0.30;;
20855;SDS011;10588;49.542;8.444;2022-08-06T10:37:10;3.08;;;0.38;;
20855;SDS011;10588;49.542;8.444;2022-08-06T10:39:38;0.28;;;0.20;;
20855;SDS011;10588;49.542;8.444;2022-08-06T10:42:07;0.40;;;0.20;;
20855;SDS011;10588;49.542;8.444;2022-08-06T10:44:34;1.10;;;0.40;;
20855;SDS011;10588;49.542;8.444;2022-08-06T10:47:01;1.33;;;0.30;;
20855;SDS011;10588;49.542;8.444;2022-08-06T10:49:28;0.30;;;0.20;;
20855;SDS011;10588;49.542;8.444;2022-08-06T10:51:55;1.00;;;0.25;;
20855;SDS011;10588;49.542;8.444;2022-08-06T10:54:21;0.50;;;0.28;;
20855;SDS011;10588;49.542;8.444;2022-08-06T10:56:48;0.88;;;0.30;;
20855;SDS011;10588;49.542;8.444;2022-08-06T10:59:15;0.70;;;0.40;;
20855;SDS011;10588;49.542;8.444;2022-08-06T11:04:52;0.22;;;0.22;;
20855;SDS011;10588;49.542;8.444;2022-08-06T11:13:30;0.55;;;0.20;;
20855;SDS011;10588;49.542;8.444;2022-08-06T11:15:56;0.47;;;0.28;;
20855;SDS011;10588;49.542;8.444;2022-08-06T11:18:21;0.25;;;0.25;;
20855;SDS011;10588;49.542;8.444;2022-08-06T11:20:48;0.75;;;0.50;;
20855;SDS011;10588;49.542;8.444;2022-08-06T11:28:09;0.32;;;0.25;;
20855;SDS011;10588;49.542;8.444;2022-08-06T11:30:42;0.38;;;0.28;;
20855;SDS011;10588;49.542;8.444;2022-08-06T11:33:10;0.90;;;0.30;;
20855;SDS011;10588;49.542;8.444;2022-08-06T11:35:37;0.43;;;0.20;;
20855;SDS011;10588;49.542;8.444;2022-08-06T11:38:05;0.57;;;0.30;;
20855;SDS011;10588;49.542;8.444;2022-08-06T12:02:06;0.40;;;0.30;;
20855;SDS011;10588;49.542;8.444;2022-08-06T12:17:37;0.40;;;0.30;;
20855;SDS011;10588;49.542;8.444;2022-08-06T12:20:04;0.63;;;0.38;;
20855;SDS011;10588;49.542;8.444;2022-08-06T12:22:31;1.75;;;0.20;;
20855;SDS011;10588;49.542;8.444;2022-08-06T12:24:58;0.77;;;0.30;;
20855;SDS011;10588;49.542;8.444;2022-08-06T12:27:32;0.20;;;0.20;;
20855;SDS011;10588;49.542;8.444;2022-08-06T12:29:58;0.52;;;0.28;;
20855;SDS011;10588;49.542;8.444;2022-08-06T12:32:27;2.55;;;0.40;;
20855;SDS011;10588;49.542;8.444;2022-08-06T12:34:55;0.40;;;0.20;;
20855;SDS011;10588;49.542;8.444;2022-08-06T12:37:32;0.38;;;0.20;;
20855;SDS011;10588;49.542;8.444;2022-08-06T12:40:06;0.50;;;0.20;;
20855;SDS011;10588;49.542;8.444;2022-08-06T12:42:49;0.45;;;0.30;;
20855;SDS011;10588;49.542;8.444;2022-08-06T12:45:22;0.13;;;0.13;;
20855;SDS011;10588;49.542;8.444;2022-08-06T12:50:35;0.55;;;0.20;;
20855;SDS011;10588;49.542;8.444;2022-08-06T12:53:16;1.05;;;0.32;;
20855;SDS011;10588;49.542;8.444;2022-08-06T12:55:52;0.50;;;0.25;;
20855;SDS011;10588;49.542;8.444;2022-08-06T12:58:20;0.57;;;0.30;;
20855;SDS011;10588;49.542;8.444;2022-08-06T13:00:57;0.95;;;0.20;;
20855;SDS011;10588;49.542;8.444;2022-08-06T13:03:24;0.20;;;0.20;;
20855;SDS011;10588;49.542;8.444;2022-08-06T13:05:54;0.20;;;0.20;;
20855;SDS011;10588;49.542;8.444;2022-08-06T13:08:21;0.22;;;0.20;;
20855;SDS011;10588;49.542;8.444;2022-08-06T13:10:51;0.52;;;0.30;;
20855;SDS011;10588;49.542;8.444;2022-08-06T13:13:18;0.65;;;0.38;;
20855;SDS011;10588;49.542;8.444;2022-08-06T13:16:01;0.30;;;0.20;;
20855;SDS011;10588;49.542;8.444;2022-08-06T13:18:28;0.22;;;0.20;;
20855;SDS011;10588;49.542;8.444;2022-08-06T13:20:54;0.30;;;0.20;;
20855;SDS011;10588;49.542;8.444;2022-08-06T13:23:37;0.75;;;0.22;;
20855;SDS011;10588;49.542;8.444;2022-08-06T13:26:46;0.32;;;0.32;;
20855;SDS011;10588;49.542;8.444;2022-08-06T13:29:29;0.32;;;0.20;;
20855;SDS011;10588;49.542;8.444;2022-08-06T13:32:06;0.98;;;0.20;;
20855;SDS011;10588;49.542;8.444;2022-08-06T13:37:48;0.30;;;0.30;;
20855;SDS011;10588;49.542;8.444;2022-08-06T13:40:15;0.73;;;0.30;;
20855;SDS011;10588;49.542;8.444;2022-08-06T13:42:52;0.38;;;0.30;;
20855;SDS011;10588;49.542;8.444;2022-08-06T13:45:20;0.50;;;0.30;;
20855;SDS011;10588;49.542;8.444;2022-08-06T13:47:51;0.63;;;0.30;;
20855;SDS011;10588;49.542;8.444;2022-08-06T13:50:36;1.48;;;0.30;;
20855;SDS011;10588;49.542;8.444;2022-08-06T13:53:09;0.80;;;0.30;;
20855;SDS011;10588;49.542;8.444;2022-08-06T13:55:37;5.85;;;0.47;;
20855;SDS011;10588;49.542;8.444;2022-08-06T13:58:07;0.20;;;0.20;;
20855;SDS011;10588;49.542;8.444;2022-08-06T14:00:36;0.40;;;0.25;;
20855;SDS011;10588;49.542;8.444;2022-08-06T14:03:09;0.70;;;0.28;;
20855;SDS011;10588;49.542;8.444;2022-08-06T14:05:34;3.20;;;0.45;;
20855;SDS011;10588;49.542;8.444;2022-08-06T14:08:00;0.20;;;0.20;;
20855;SDS011;10588;49.542;8.444;2022-08-06T14:10:25;0.45;;;0.20;;
20855;SDS011;10588;49.542;8.444;2022-08-06T14:12:51;0.30;;;0.20;;
20855;SDS011;10588;49.542;8.444;2022-08-06T14:15:35;1.00;;;0.30;;
20855;SDS011;10588;49.542;8.444;2022-08-06T14:18:01;3.00;;;0.30;;
20855;SDS011;10588;49.542;8.444;2022-08-06T14:20:27;0.65;;;0.47;;
20855;SDS011;10588;49.542;8.444;2022-08-06T14:22:53;1.70;;;0.28;;
20855;SDS011;10588;49.542;8.444;2022-08-06T14:25:19;0.45;;;0.15;;
20855;SDS011;10588;49.542;8.444;2022-08-06T14:27:48;2.85;;;0.30;;
20855;SDS011;10588;49.542;8.444;2022-08-06T14:30:14;1.58;;;0.25;;
20855;SDS011;10588;49.542;8.444;2022-08-06T14:32:41;0.82;;;0.30;;
20855;SDS011;10588;49.542;8.444;2022-08-06T14:35:08;3.70;;;0.40;;
20855;SDS011;10588;49.542;8.444;2022-08-06T14:37:35;0.75;;;0.30;;
20855;SDS011;10588;49.542;8.444;2022-08-06T14:40:00;4.53;;;0.40;;
20855;SDS011;10588;49.542;8.444;2022-08-06T14:42:26;3.70;;;0.57;;
20855;SDS011;10588;49.542;8.444;2022-08-06T14:45:11;3.28;;;0.25;;
20855;SDS011;10588;49.542;8.444;2022-08-06T14:47:39;2.00;;;0.30;;
20855;SDS011;10588;49.542;8.444;2022-08-06T14:50:05;1.45;;;0.30;;
20855;SDS011;10588;49.542;8.444;2022-08-06T14:52:33;5.30;;;0.70;;
20855;SDS011;10588;49.542;8.444;2022-08-06T14:54:59;8.65;;;0.80;;
20855;SDS011;10588;49.542;8.444;2022-08-06T14:57:26;14.73;;;0.90;;
20855;SDS011;10588;49.542;8.444;2022-08-06T14:59:52;6.15;;;0.63;;
20855;SDS011;10588;49.542;8.444;2022-08-06T15:02:22;32.45;;;1.42;;
20855;SDS011;10588;49.542;8.444;2022-08-06T15:04:49;15.15;;;1.60;;
20855;SDS011;10588;49.542;8.444;2022-08-06T15:07:16;17.38;;;1.38;;
20855;SDS011;10588;49.542;8.444;2022-08-06T15:09:45;13.32;;;0.82;;
20855;SDS011;10588;49.542;8.444;2022-08-06T15:12:10;14.32;;;1.30;;
20855;SDS011;10588;49.542;8.444;2022-08-06T15:14:36;22.45;;;1.63;;
20855;SDS011;10588;49.542;8.444;2022-08-06T15:17:02;20.40;;;1.20;;
20855;SDS011;10588;49.542;8.444;2022-08-06T15:19:28;15.57;;;2.22;;
20855;SDS011;10588;49.542;8.444;2022-08-06T15:21:54;5.45;;;0.77;;
20855;SDS011;10588;49.542;8.444;2022-08-06T15:24:20;6.80;;;0.88;;
20855;SDS011;10588;49.542;8.444;2022-08-06T15:27:07;10.27;;;1.10;;
20855;SDS011;10588;49.542;8.444;2022-08-06T15:29:36;12.32;;;0.95;;
20855;SDS011;10588;49.542;8.444;2022-08-06T15:32:02;30.67;;;1.60;;
20855;SDS011;10588;49.542;8.444;2022-08-06T15:34:28;7.32;;;1.10;;
20855;SDS011;10588;49.542;8.444;2022-08-06T15:36:56;7.85;;;0.95;;
20855;SDS011;10588;49.542;8.444;2022-08-06T15:39:22;9.20;;;0.90;;
20855;SDS011;10588;49.542;8.444;2022-08-06T15:41:49;5.93;;;0.90;;
20855;SDS011;10588;49.542;8.444;2022-08-06T15:44:14;9.93;;;0.70;;
20855;SDS011;10588;49.542;8.444;2022-08-06T15:46:42;5.35;;;0.75;;
20855;SDS011;10588;49.542;8.444;2022-08-06T15:49:08;6.88;;;0.88;;
20855;SDS011;10588;49.542;8.444;2022-08-06T15:51:38;7.18;;;0.88;;
20855;SDS011;10588;49.542;8.444;2022-08-06T15:54:19;3.13;;;0.50;;
20855;SDS011;10588;49.542;8.444;2022-08-06T15:56:45;2.25;;;0.50;;
20855;SDS011;10588;49.542;8.444;2022-08-06T15:59:11;2.00;;;0.47;;
20855;SDS011;10588;49.542;8.444;2022-08-06T16:01:42;2.60;;;0.40;;
20855;SDS011;10588;49.542;8.444;2022-08-06T16:04:14;5.28;;;0.57;;
20855;SDS011;10588;49.542;8.444;2022-08-06T16:06:39;15.02;;;1.08;;
20855;SDS011;10588;49.542;8.444;2022-08-06T16:09:10;12.13;;;1.10;;
20855;SDS011;10588;49.542;8.444;2022-08-06T16:11:38;14.48;;;0.80;;
20855;SDS011;10588;49.542;8.444;2022-08-06T16:14:04;6.55;;;1.00;;
20855;SDS011;10588;49.542;8.444;2022-08-06T16:16:29;6.55;;;0.80;;
20855;SDS011;10588;49.542;8.444;2022-08-06T16:18:58;6.50;;;0.75;;
20855;SDS011;10588;49.542;8.444;2022-08-06T16:21:24;5.97;;;0.98;;
20855;SDS011;10588;49.542;8.444;2022-08-06T16:23:50;6.90;;;1.00;;
20855;SDS011;10588;49.542;8.444;2022-08-06T16:26:16;2.40;;;1.50;;